sensor_id;sensor_type;location;lat;lon;timestamp;P1;durP1;ratioP1;P2;durP2;ratioP2
36751;SDS011;22718;49.494;7.036;2023-12-07T00:01:42;40.10;;;15.77;;
36751;SDS011;22718;49.494;7.036;2023-12-07T00:04:13;40.22;;;15.95;;
36751;SDS011;22718;49.494;7.036;2023-12-07T00:06:41;44.28;;;15.55;;
36751;SDS011;22718;49.494;7.036;2023-12-07T00:09:07;25.40;;;12.38;;
36751;SDS011;22718;49.494;7.036;2023-12-07T00:11:33;37.15;;;15.57;;
36751;SDS011;22718;49.494;7.036;2023-12-07T00:14:01;42.63;;;15.60;;
36751;SDS011;22718;49.494;7.036;2023-12-07T00:16:30;48.67;;;18.27;;
36751;SDS011;22718;49.494;7.036;2023-12-07T00:18:56;38.33;;;15.13;;
36751;SDS011;22718;49.494;7.036;2023-12-07T00:21:22;36.92;;;15.18;;
36751;SDS011;22718;49.494;7.036;2023-12-07T00:23:47;40.75;;;15.60;;
36751;SDS011;22718;49.494;7.036;2023-12-07T00:26:13;35.97;;;15.35;;
36751;SDS011;22718;49.494;7.036;2023-12-07T00:28:42;33.53;;;14.18;;
36751;SDS011;22718;49.494;7.036;2023-12-07T00:31:13;34.70;;;15.57;;
36751;SDS011;22718;49.494;7.036;2023-12-07T00:33:39;31.80;;;14.25;;
36751;SDS011;22718;49.494;7.036;2023-12-07T00:36:04;30.65;;;13.32;;
36751;SDS011;22718;49.494;7.036;2023-12-07T00:38:33;29.75;;;13.98;;
36751;SDS011;22718;49.494;7.036;2023-12-07T00:40:58;38.92;;;14.07;;
36751;SDS011;22718;49.494;7.036;2023-12-07T00:43:24;37.00;;;13.32;;
36751;SDS011;22718;49.494;7.036;2023-12-07T00:45:50;25.58;;;13.90;;
36751;SDS011;22718;49.494;7.036;2023-12-07T00:48:16;32.00;;;13.32;;
36751;SDS011;22718;49.494;7.036;2023-12-07T00:50:42;29.30;;;13.60;;
36751;SDS011;22718;49.494;7.036;2023-12-07T00:53:08;27.98;;;12.48;;
36751;SDS011;22718;49.494;7.036;2023-12-07T00:55:42;29.67;;;13.40;;
36751;SDS011;22718;49.494;7.036;2023-12-07T00:58:08;23.02;;;11.43;;
36751;SDS011;22718;49.494;7.036;2023-12-07T01:00:34;26.70;;;11.98;;
36751;SDS011;22718;49.494;7.036;2023-12-07T01:03:00;31.00;;;12.73;;
36751;SDS011;22718;49.494;7.036;2023-12-07T01:05:25;36.47;;;14.05;;
36751;SDS011;22718;49.494;7.036;2023-12-07T01:07:53;33.50;;;12.95;;
36751;SDS011;22718;49.494;7.036;2023-12-07T01:10:22;31.00;;;12.60;;
36751;SDS011;22718;49.494;7.036;2023-12-07T01:12:48;30.83;;;12.95;;
36751;SDS011;22718;49.494;7.036;2023-12-07T01:15:16;28.65;;;12.95;;
36751;SDS011;22718;49.494;7.036;2023-12-07T01:17:42;34.40;;;13.05;;
36751;SDS011;22718;49.494;7.036;2023-12-07T01:20:08;24.05;;;11.05;;
36751;SDS011;22718;49.494;7.036;2023-12-07T01:22:38;32.15;;;12.73;;
36751;SDS011;22718;49.494;7.036;2023-12-07T01:25:06;26.07;;;12.23;;
36751;SDS011;22718;49.494;7.036;2023-12-07T01:27:34;33.45;;;12.10;;
36751;SDS011;22718;49.494;7.036;2023-12-07T01:30:02;22.10;;;11.02;;
36751;SDS011;22718;49.494;7.036;2023-12-07T01:32:31;27.23;;;11.95;;
36751;SDS011;22718;49.494;7.036;2023-12-07T01:34:57;31.90;;;11.27;;
36751;SDS011;22718;49.494;7.036;2023-12-07T01:37:25;29.42;;;10.70;;
36751;SDS011;22718;49.494;7.036;2023-12-07T01:39:55;29.42;;;10.20;;
36751;SDS011;22718;49.494;7.036;2023-12-07T01:42:33;22.92;;;8.57;;
36751;SDS011;22718;49.494;7.036;2023-12-07T01:45:02;28.80;;;9.95;;
36751;SDS011;22718;49.494;7.036;2023-12-07T01:47:36;25.02;;;10.63;;
36751;SDS011;22718;49.494;7.036;2023-12-07T01:50:03;20.42;;;10.25;;
36751;SDS011;22718;49.494;7.036;2023-12-07T01:52:30;20.85;;;9.77;;
36751;SDS011;22718;49.494;7.036;2023-12-07T01:54:56;21.77;;;9.60;;
36751;SDS011;22718;49.494;7.036;2023-12-07T01:57:22;24.13;;;9.43;;
36751;SDS011;22718;49.494;7.036;2023-12-07T01:59:54;22.73;;;8.85;;
36751;SDS011;22718;49.494;7.036;2023-12-07T02:02:20;19.58;;;8.20;;
36751;SDS011;22718;49.494;7.036;2023-12-07T02:04:49;19.00;;;8.88;;
36751;SDS011;22718;49.494;7.036;2023-12-07T02:07:18;22.38;;;8.43;;
36751;SDS011;22718;49.494;7.036;2023-12-07T02:09:44;18.85;;;8.60;;
36751;SDS011;22718;49.494;7.036;2023-12-07T02:12:15;19.38;;;9.10;;
36751;SDS011;22718;49.494;7.036;2023-12-07T02:14:44;23.58;;;10.32;;
36751;SDS011;22718;49.494;7.036;2023-12-07T02:20:02;18.20;;;9.43;;
36751;SDS011;22718;49.494;7.036;2023-12-07T02:22:52;25.92;;;9.55;;
36751;SDS011;22718;49.494;7.036;2023-12-07T02:25:31;26.13;;;11.02;;
36751;SDS011;22718;49.494;7.036;2023-12-07T02:28:02;19.35;;;9.77;;
36751;SDS011;22718;49.494;7.036;2023-12-07T02:30:28;26.27;;;11.70;;
36751;SDS011;22718;49.494;7.036;2023-12-07T02:32:56;26.33;;;11.70;;
36751;SDS011;22718;49.494;7.036;2023-12-07T02:35:22;22.58;;;10.38;;
36751;SDS011;22718;49.494;7.036;2023-12-07T02:37:49;25.13;;;10.90;;
36751;SDS011;22718;49.494;7.036;2023-12-07T02:40:17;21.50;;;10.07;;
36751;SDS011;22718;49.494;7.036;2023-12-07T02:42:48;24.58;;;10.15;;
36751;SDS011;22718;49.494;7.036;2023-12-07T02:45:15;27.08;;;11.07;;
36751;SDS011;22718;49.494;7.036;2023-12-07T02:47:43;22.70;;;9.55;;
36751;SDS011;22718;49.494;7.036;2023-12-07T02:50:37;27.45;;;10.40;;
36751;SDS011;22718;49.494;7.036;2023-12-07T02:53:03;22.90;;;9.68;;
36751;SDS011;22718;49.494;7.036;2023-12-07T02:55:33;20.83;;;9.75;;
36751;SDS011;22718;49.494;7.036;2023-12-07T02:58:07;24.48;;;11.32;;
36751;SDS011;22718;49.494;7.036;2023-12-07T03:00:34;23.58;;;10.63;;
36751;SDS011;22718;49.494;7.036;2023-12-07T03:02:59;20.48;;;10.43;;
36751;SDS011;22718;49.494;7.036;2023-12-07T03:05:27;25.98;;;9.82;;
36751;SDS011;22718;49.494;7.036;2023-12-07T03:07:53;20.80;;;9.55;;
36751;SDS011;22718;49.494;7.036;2023-12-07T03:10:19;19.52;;;9.10;;
36751;SDS011;22718;49.494;7.036;2023-12-07T03:12:44;20.25;;;8.88;;
36751;SDS011;22718;49.494;7.036;2023-12-07T03:15:10;20.75;;;9.38;;
36751;SDS011;22718;49.494;7.036;2023-12-07T03:17:38;24.70;;;11.50;;
36751;SDS011;22718;49.494;7.036;2023-12-07T03:20:04;21.77;;;10.52;;
36751;SDS011;22718;49.494;7.036;2023-12-07T03:22:30;23.50;;;12.02;;
36751;SDS011;22718;49.494;7.036;2023-12-07T03:24:58;22.80;;;9.98;;
36751;SDS011;22718;49.494;7.036;2023-12-07T03:27:33;25.48;;;10.38;;
36751;SDS011;22718;49.494;7.036;2023-12-07T03:29:59;25.17;;;10.10;;
36751;SDS011;22718;49.494;7.036;2023-12-07T03:32:28;20.60;;;9.18;;
36751;SDS011;22718;49.494;7.036;2023-12-07T03:35:06;26.17;;;9.65;;
36751;SDS011;22718;49.494;7.036;2023-12-07T03:37:32;21.38;;;8.38;;
36751;SDS011;22718;49.494;7.036;2023-12-07T03:40:00;22.23;;;10.75;;
36751;SDS011;22718;49.494;7.036;2023-12-07T03:42:33;23.10;;;10.38;;
36751;SDS011;22718;49.494;7.036;2023-12-07T03:45:02;22.15;;;10.00;;
36751;SDS011;22718;49.494;7.036;2023-12-07T03:47:27;20.05;;;10.40;;
36751;SDS011;22718;49.494;7.036;2023-12-07T03:49:56;23.42;;;9.73;;
36751;SDS011;22718;49.494;7.036;2023-12-07T03:52:22;23.02;;;10.43;;
36751;SDS011;22718;49.494;7.036;2023-12-07T03:54:50;20.83;;;10.55;;
36751;SDS011;22718;49.494;7.036;2023-12-07T03:57:19;25.17;;;10.50;;
36751;SDS011;22718;49.494;7.036;2023-12-07T03:59:46;24.00;;;10.48;;
36751;SDS011;22718;49.494;7.036;2023-12-07T04:02:12;19.60;;;9.73;;
36751;SDS011;22718;49.494;7.036;2023-12-07T04:04:43;26.95;;;10.90;;
36751;SDS011;22718;49.494;7.036;2023-12-07T04:07:08;21.08;;;10.57;;
36751;SDS011;22718;49.494;7.036;2023-12-07T04:09:35;25.20;;;10.90;;
36751;SDS011;22718;49.494;7.036;2023-12-07T04:12:05;26.30;;;10.23;;
36751;SDS011;22718;49.494;7.036;2023-12-07T04:14:31;27.20;;;11.63;;
36751;SDS011;22718;49.494;7.036;2023-12-07T04:16:57;24.48;;;12.18;;
36751;SDS011;22718;49.494;7.036;2023-12-07T04:19:25;30.38;;;11.35;;
36751;SDS011;22718;49.494;7.036;2023-12-07T04:21:53;29.60;;;13.85;;
36751;SDS011;22718;49.494;7.036;2023-12-07T04:24:19;29.05;;;13.52;;
36751;SDS011;22718;49.494;7.036;2023-12-07T04:26:47;30.60;;;12.75;;
36751;SDS011;22718;49.494;7.036;2023-12-07T04:29:14;30.48;;;15.38;;
36751;SDS011;22718;49.494;7.036;2023-12-07T04:31:45;35.80;;;13.65;;
36751;SDS011;22718;49.494;7.036;2023-12-07T04:34:14;43.58;;;15.82;;
36751;SDS011;22718;49.494;7.036;2023-12-07T04:36:42;60.17;;;16.92;;
36751;SDS011;22718;49.494;7.036;2023-12-07T04:39:08;320.17;;;32.08;;
36751;SDS011;22718;49.494;7.036;2023-12-07T04:41:34;104.28;;;17.58;;
36751;SDS011;22718;49.494;7.036;2023-12-07T04:44:00;59.60;;;15.15;;
36751;SDS011;22718;49.494;7.036;2023-12-07T04:46:26;82.15;;;18.80;;
36751;SDS011;22718;49.494;7.036;2023-12-07T04:49:03;66.53;;;17.48;;
36751;SDS011;22718;49.494;7.036;2023-12-07T04:51:31;53.55;;;15.60;;
36751;SDS011;22718;49.494;7.036;2023-12-07T04:54:02;77.72;;;19.92;;
36751;SDS011;22718;49.494;7.036;2023-12-07T04:56:27;92.63;;;19.52;;
36751;SDS011;22718;49.494;7.036;2023-12-07T04:58:53;201.65;;;25.58;;
36751;SDS011;22718;49.494;7.036;2023-12-07T05:01:38;194.10;;;27.88;;
36751;SDS011;22718;49.494;7.036;2023-12-07T05:04:04;248.00;;;30.13;;
36751;SDS011;22718;49.494;7.036;2023-12-07T05:06:30;380.48;;;44.72;;
36751;SDS011;22718;49.494;7.036;2023-12-07T05:09:00;193.07;;;25.90;;
36751;SDS011;22718;49.494;7.036;2023-12-07T05:11:33;111.72;;;18.67;;
36751;SDS011;22718;49.494;7.036;2023-12-07T05:14:01;181.13;;;27.27;;
36751;SDS011;22718;49.494;7.036;2023-12-07T05:16:30;471.05;;;47.50;;
36751;SDS011;22718;49.494;7.036;2023-12-07T05:18:55;375.25;;;43.45;;
36751;SDS011;22718;49.494;7.036;2023-12-07T05:21:21;172.20;;;23.40;;
36751;SDS011;22718;49.494;7.036;2023-12-07T05:23:51;264.85;;;34.35;;
36751;SDS011;22718;49.494;7.036;2023-12-07T05:26:22;166.43;;;23.73;;
36751;SDS011;22718;49.494;7.036;2023-12-07T05:28:48;206.68;;;25.65;;
36751;SDS011;22718;49.494;7.036;2023-12-07T05:31:17;271.35;;;30.75;;
36751;SDS011;22718;49.494;7.036;2023-12-07T05:33:48;126.18;;;24.63;;
36751;SDS011;22718;49.494;7.036;2023-12-07T05:36:14;193.77;;;30.85;;
36751;SDS011;22718;49.494;7.036;2023-12-07T05:38:41;213.43;;;27.85;;
36751;SDS011;22718;49.494;7.036;2023-12-07T05:41:06;249.93;;;27.90;;
36751;SDS011;22718;49.494;7.036;2023-12-07T05:43:32;241.52;;;27.48;;
36751;SDS011;22718;49.494;7.036;2023-12-07T05:46:00;205.85;;;26.00;;
36751;SDS011;22718;49.494;7.036;2023-12-07T05:48:32;295.40;;;31.67;;
36751;SDS011;22718;49.494;7.036;2023-12-07T05:51:04;234.82;;;25.98;;
36751;SDS011;22718;49.494;7.036;2023-12-07T05:53:30;205.43;;;27.70;;
36751;SDS011;22718;49.494;7.036;2023-12-07T05:56:00;128.32;;;20.17;;
36751;SDS011;22718;49.494;7.036;2023-12-07T05:58:26;168.05;;;24.58;;
36751;SDS011;22718;49.494;7.036;2023-12-07T06:03:31;427.58;;;39.95;;
36751;SDS011;22718;49.494;7.036;2023-12-07T06:06:00;350.98;;;35.05;;
36751;SDS011;22718;49.494;7.036;2023-12-07T06:08:26;362.35;;;37.80;;
36751;SDS011;22718;49.494;7.036;2023-12-07T06:10:54;530.55;;;51.47;;
36751;SDS011;22718;49.494;7.036;2023-12-07T06:13:21;494.40;;;45.83;;
36751;SDS011;22718;49.494;7.036;2023-12-07T06:15:46;414.77;;;39.35;;
36751;SDS011;22718;49.494;7.036;2023-12-07T06:18:12;401.40;;;39.50;;
36751;SDS011;22718;49.494;7.036;2023-12-07T06:20:38;404.45;;;40.20;;
36751;SDS011;22718;49.494;7.036;2023-12-07T06:23:03;472.85;;;50.45;;
36751;SDS011;22718;49.494;7.036;2023-12-07T06:25:31;327.65;;;32.83;;
36751;SDS011;22718;49.494;7.036;2023-12-07T06:28:00;388.48;;;37.00;;
36751;SDS011;22718;49.494;7.036;2023-12-07T06:30:26;377.50;;;37.20;;
36751;SDS011;22718;49.494;7.036;2023-12-07T06:32:54;399.75;;;40.28;;
36751;SDS011;22718;49.494;7.036;2023-12-07T06:35:20;378.73;;;35.35;;
36751;SDS011;22718;49.494;7.036;2023-12-07T06:37:45;476.45;;;48.60;;
36751;SDS011;22718;49.494;7.036;2023-12-07T06:40:11;351.13;;;37.88;;
36751;SDS011;22718;49.494;7.036;2023-12-07T06:42:37;248.82;;;27.52;;
36751;SDS011;22718;49.494;7.036;2023-12-07T06:45:04;322.08;;;37.72;;
36751;SDS011;22718;49.494;7.036;2023-12-07T06:47:35;461.27;;;48.90;;
36751;SDS011;22718;49.494;7.036;2023-12-07T06:50:04;377.33;;;44.58;;
36751;SDS011;22718;49.494;7.036;2023-12-07T06:52:33;247.18;;;25.83;;
36751;SDS011;22718;49.494;7.036;2023-12-07T06:54:59;234.82;;;27.75;;
36751;SDS011;22718;49.494;7.036;2023-12-07T06:57:25;385.55;;;40.70;;
36751;SDS011;22718;49.494;7.036;2023-12-07T06:59:54;582.33;;;67.28;;
36751;SDS011;22718;49.494;7.036;2023-12-07T07:02:25;549.58;;;55.50;;
36751;SDS011;22718;49.494;7.036;2023-12-07T07:04:53;509.67;;;53.67;;
36751;SDS011;22718;49.494;7.036;2023-12-07T07:07:22;309.30;;;29.95;;
36751;SDS011;22718;49.494;7.036;2023-12-07T07:09:57;507.08;;;64.53;;
36751;SDS011;22718;49.494;7.036;2023-12-07T07:12:24;264.50;;;30.73;;
36751;SDS011;22718;49.494;7.036;2023-12-07T07:14:53;387.13;;;40.88;;
36751;SDS011;22718;49.494;7.036;2023-12-07T07:17:22;411.08;;;50.53;;
36751;SDS011;22718;49.494;7.036;2023-12-07T07:19:57;329.08;;;34.42;;
36751;SDS011;22718;49.494;7.036;2023-12-07T07:22:34;334.08;;;30.50;;
36751;SDS011;22718;49.494;7.036;2023-12-07T07:25:00;311.75;;;34.75;;
36751;SDS011;22718;49.494;7.036;2023-12-07T07:27:29;362.13;;;38.10;;
36751;SDS011;22718;49.494;7.036;2023-12-07T07:29:55;425.00;;;43.17;;
36751;SDS011;22718;49.494;7.036;2023-12-07T07:32:20;363.60;;;34.90;;
36751;SDS011;22718;49.494;7.036;2023-12-07T07:34:55;353.50;;;32.42;;
36751;SDS011;22718;49.494;7.036;2023-12-07T07:37:23;457.48;;;42.47;;
36751;SDS011;22718;49.494;7.036;2023-12-07T07:39:50;427.70;;;40.47;;
36751;SDS011;22718;49.494;7.036;2023-12-07T07:42:15;378.88;;;39.35;;
36751;SDS011;22718;49.494;7.036;2023-12-07T07:44:44;573.28;;;52.92;;
36751;SDS011;22718;49.494;7.036;2023-12-07T07:47:23;376.02;;;35.92;;
36751;SDS011;22718;49.494;7.036;2023-12-07T07:49:49;635.83;;;56.05;;
36751;SDS011;22718;49.494;7.036;2023-12-07T07:52:23;457.23;;;43.75;;
36751;SDS011;22718;49.494;7.036;2023-12-07T07:54:52;273.65;;;26.77;;
36751;SDS011;22718;49.494;7.036;2023-12-07T07:57:23;504.38;;;45.05;;
36751;SDS011;22718;49.494;7.036;2023-12-07T07:59:51;504.33;;;44.88;;
36751;SDS011;22718;49.494;7.036;2023-12-07T08:02:24;406.02;;;54.03;;
36751;SDS011;22718;49.494;7.036;2023-12-07T08:04:50;314.75;;;34.47;;
36751;SDS011;22718;49.494;7.036;2023-12-07T08:07:22;327.00;;;34.13;;
36751;SDS011;22718;49.494;7.036;2023-12-07T08:09:50;331.13;;;31.52;;
36751;SDS011;22718;49.494;7.036;2023-12-07T08:12:18;365.48;;;36.40;;
36751;SDS011;22718;49.494;7.036;2023-12-07T08:14:49;512.25;;;51.22;;
36751;SDS011;22718;49.494;7.036;2023-12-07T08:17:26;438.67;;;39.63;;
36751;SDS011;22718;49.494;7.036;2023-12-07T08:19:52;425.85;;;40.95;;
36751;SDS011;22718;49.494;7.036;2023-12-07T08:22:24;412.48;;;41.63;;
36751;SDS011;22718;49.494;7.036;2023-12-07T08:25:04;404.50;;;38.35;;
36751;SDS011;22718;49.494;7.036;2023-12-07T08:27:42;381.33;;;34.63;;
36751;SDS011;22718;49.494;7.036;2023-12-07T08:30:11;359.20;;;41.35;;
36751;SDS011;22718;49.494;7.036;2023-12-07T08:32:40;366.33;;;33.40;;
36751;SDS011;22718;49.494;7.036;2023-12-07T08:35:06;449.55;;;41.28;;
36751;SDS011;22718;49.494;7.036;2023-12-07T08:37:32;666.80;;;61.55;;
36751;SDS011;22718;49.494;7.036;2023-12-07T08:39:58;523.03;;;51.42;;
36751;SDS011;22718;49.494;7.036;2023-12-07T08:42:28;538.38;;;45.47;;
36751;SDS011;22718;49.494;7.036;2023-12-07T08:44:58;402.10;;;40.88;;
36751;SDS011;22718;49.494;7.036;2023-12-07T08:47:26;324.63;;;31.67;;
36751;SDS011;22718;49.494;7.036;2023-12-07T08:49:59;419.70;;;40.30;;
36751;SDS011;22718;49.494;7.036;2023-12-07T08:52:28;472.08;;;48.35;;
36751;SDS011;22718;49.494;7.036;2023-12-07T08:54:54;443.52;;;45.80;;
36751;SDS011;22718;49.494;7.036;2023-12-07T08:57:20;425.70;;;42.42;;
36751;SDS011;22718;49.494;7.036;2023-12-07T08:59:48;445.60;;;47.45;;
36751;SDS011;22718;49.494;7.036;2023-12-07T09:02:16;405.73;;;35.38;;
36751;SDS011;22718;49.494;7.036;2023-12-07T09:07:30;256.38;;;26.95;;
36751;SDS011;22718;49.494;7.036;2023-12-07T09:09:57;321.20;;;29.13;;
36751;SDS011;22718;49.494;7.036;2023-12-07T09:12:28;312.55;;;28.27;;
36751;SDS011;22718;49.494;7.036;2023-12-07T09:17:37;135.70;;;18.23;;
36751;SDS011;22718;49.494;7.036;2023-12-07T09:20:09;292.60;;;27.70;;
36751;SDS011;22718;49.494;7.036;2023-12-07T09:22:38;113.80;;;15.25;;
36751;SDS011;22718;49.494;7.036;2023-12-07T09:25:07;154.07;;;18.13;;
36751;SDS011;22718;49.494;7.036;2023-12-07T09:27:34;136.07;;;16.65;;
36751;SDS011;22718;49.494;7.036;2023-12-07T09:30:03;326.00;;;29.45;;
36751;SDS011;22718;49.494;7.036;2023-12-07T09:32:41;329.98;;;30.52;;
36751;SDS011;22718;49.494;7.036;2023-12-07T09:35:08;182.43;;;22.98;;
36751;SDS011;22718;49.494;7.036;2023-12-07T09:37:44;117.75;;;15.73;;
36751;SDS011;22718;49.494;7.036;2023-12-07T09:40:15;47.85;;;10.18;;
36751;SDS011;22718;49.494;7.036;2023-12-07T09:42:47;80.40;;;13.07;;
36751;SDS011;22718;49.494;7.036;2023-12-07T09:45:13;216.77;;;24.95;;
36751;SDS011;22718;49.494;7.036;2023-12-07T09:47:45;384.33;;;32.72;;
36751;SDS011;22718;49.494;7.036;2023-12-07T09:50:27;224.90;;;23.33;;
36751;SDS011;22718;49.494;7.036;2023-12-07T09:52:54;141.13;;;17.98;;
36751;SDS011;22718;49.494;7.036;2023-12-07T09:55:27;222.27;;;22.13;;
36751;SDS011;22718;49.494;7.036;2023-12-07T09:57:53;141.27;;;15.07;;
36751;SDS011;22718;49.494;7.036;2023-12-07T10:00:24;135.40;;;16.02;;
36751;SDS011;22718;49.494;7.036;2023-12-07T10:03:03;181.73;;;24.20;;
36751;SDS011;22718;49.494;7.036;2023-12-07T10:05:34;44.33;;;11.73;;
36751;SDS011;22718;49.494;7.036;2023-12-07T10:11:18;19.33;;;8.73;;
36751;SDS011;22718;49.494;7.036;2023-12-07T10:13:45;19.52;;;9.20;;
36751;SDS011;22718;49.494;7.036;2023-12-07T10:18:48;82.50;;;12.40;;
36751;SDS011;22718;49.494;7.036;2023-12-07T10:21:32;169.15;;;18.67;;
36751;SDS011;22718;49.494;7.036;2023-12-07T10:24:03;121.25;;;15.52;;
36751;SDS011;22718;49.494;7.036;2023-12-07T10:26:28;22.30;;;8.23;;
36751;SDS011;22718;49.494;7.036;2023-12-07T10:29:03;24.20;;;9.05;;
36751;SDS011;22718;49.494;7.036;2023-12-07T10:31:32;51.50;;;10.50;;
36751;SDS011;22718;49.494;7.036;2023-12-07T10:34:02;29.23;;;9.98;;
36751;SDS011;22718;49.494;7.036;2023-12-07T10:36:37;28.83;;;8.50;;
36751;SDS011;22718;49.494;7.036;2023-12-07T10:39:02;15.75;;;8.10;;
36751;SDS011;22718;49.494;7.036;2023-12-07T10:41:40;34.13;;;9.40;;
36751;SDS011;22718;49.494;7.036;2023-12-07T10:44:30;80.03;;;14.30;;
36751;SDS011;22718;49.494;7.036;2023-12-07T10:47:06;51.47;;;10.48;;
36751;SDS011;22718;49.494;7.036;2023-12-07T10:49:40;79.70;;;11.73;;
36751;SDS011;22718;49.494;7.036;2023-12-07T10:52:20;90.65;;;13.55;;
36751;SDS011;22718;49.494;7.036;2023-12-07T10:55:20;72.07;;;12.02;;
36751;SDS011;22718;49.494;7.036;2023-12-07T10:57:57;102.60;;;13.38;;
36751;SDS011;22718;49.494;7.036;2023-12-07T11:00:35;48.00;;;9.63;;
36751;SDS011;22718;49.494;7.036;2023-12-07T11:03:01;23.85;;;7.72;;
36751;SDS011;22718;49.494;7.036;2023-12-07T11:05:28;22.67;;;8.00;;
36751;SDS011;22718;49.494;7.036;2023-12-07T11:08:04;25.40;;;9.50;;
36751;SDS011;22718;49.494;7.036;2023-12-07T11:10:50;21.83;;;7.47;;
36751;SDS011;22718;49.494;7.036;2023-12-07T11:13:29;20.33;;;7.43;;
36751;SDS011;22718;49.494;7.036;2023-12-07T11:16:05;28.40;;;8.25;;
36751;SDS011;22718;49.494;7.036;2023-12-07T11:18:33;18.98;;;7.95;;
36751;SDS011;22718;49.494;7.036;2023-12-07T11:21:02;15.95;;;7.63;;
36751;SDS011;22718;49.494;7.036;2023-12-07T11:23:32;16.80;;;7.47;;
36751;SDS011;22718;49.494;7.036;2023-12-07T11:25:58;18.33;;;8.73;;
36751;SDS011;22718;49.494;7.036;2023-12-07T11:28:44;16.38;;;7.45;;
36751;SDS011;22718;49.494;7.036;2023-12-07T11:31:15;24.00;;;9.90;;
36751;SDS011;22718;49.494;7.036;2023-12-07T11:33:42;20.40;;;8.98;;
36751;SDS011;22718;49.494;7.036;2023-12-07T11:36:08;19.95;;;8.27;;
36751;SDS011;22718;49.494;7.036;2023-12-07T11:39:14;17.77;;;7.80;;
36751;SDS011;22718;49.494;7.036;2023-12-07T11:41:43;16.13;;;7.97;;
36751;SDS011;22718;49.494;7.036;2023-12-07T11:44:10;18.80;;;7.47;;
36751;SDS011;22718;49.494;7.036;2023-12-07T11:46:50;13.30;;;7.13;;
36751;SDS011;22718;49.494;7.036;2023-12-07T11:49:25;16.05;;;7.93;;
36751;SDS011;22718;49.494;7.036;2023-12-07T11:52:23;16.05;;;7.25;;
36751;SDS011;22718;49.494;7.036;2023-12-07T11:54:50;15.10;;;7.23;;
36751;SDS011;22718;49.494;7.036;2023-12-07T11:57:16;14.82;;;7.20;;
36751;SDS011;22718;49.494;7.036;2023-12-07T11:59:48;14.98;;;6.22;;
36751;SDS011;22718;49.494;7.036;2023-12-07T12:02:36;13.93;;;6.22;;
36751;SDS011;22718;49.494;7.036;2023-12-07T12:05:03;16.95;;;6.47;;
36751;SDS011;22718;49.494;7.036;2023-12-07T12:07:29;11.55;;;6.05;;
36751;SDS011;22718;49.494;7.036;2023-12-07T12:10:02;12.57;;;5.45;;
36751;SDS011;22718;49.494;7.036;2023-12-07T12:12:29;14.95;;;6.65;;
36751;SDS011;22718;49.494;7.036;2023-12-07T12:15:02;14.00;;;6.40;;
36751;SDS011;22718;49.494;7.036;2023-12-07T12:17:32;14.07;;;6.80;;
36751;SDS011;22718;49.494;7.036;2023-12-07T12:20:03;13.82;;;6.30;;
36751;SDS011;22718;49.494;7.036;2023-12-07T12:22:32;15.63;;;7.68;;
36751;SDS011;22718;49.494;7.036;2023-12-07T12:25:14;14.25;;;6.85;;
36751;SDS011;22718;49.494;7.036;2023-12-07T12:27:43;12.18;;;6.53;;
36751;SDS011;22718;49.494;7.036;2023-12-07T12:30:20;14.65;;;7.80;;
36751;SDS011;22718;49.494;7.036;2023-12-07T12:32:52;13.23;;;6.50;;
36751;SDS011;22718;49.494;7.036;2023-12-07T12:35:18;16.85;;;7.38;;
36751;SDS011;22718;49.494;7.036;2023-12-07T12:37:44;12.63;;;6.45;;
36751;SDS011;22718;49.494;7.036;2023-12-07T12:40:32;15.20;;;6.63;;
36751;SDS011;22718;49.494;7.036;2023-12-07T12:42:57;14.57;;;7.00;;
36751;SDS011;22718;49.494;7.036;2023-12-07T12:45:26;14.77;;;7.07;;
36751;SDS011;22718;49.494;7.036;2023-12-07T12:47:57;14.05;;;7.25;;
36751;SDS011;22718;49.494;7.036;2023-12-07T12:50:33;14.35;;;7.15;;
36751;SDS011;22718;49.494;7.036;2023-12-07T12:53:07;16.70;;;7.75;;
36751;SDS011;22718;49.494;7.036;2023-12-07T12:55:35;15.70;;;6.80;;
36751;SDS011;22718;49.494;7.036;2023-12-07T12:58:02;16.90;;;7.22;;
36751;SDS011;22718;49.494;7.036;2023-12-07T13:00:32;12.50;;;5.82;;
36751;SDS011;22718;49.494;7.036;2023-12-07T13:03:09;14.48;;;6.68;;
36751;SDS011;22718;49.494;7.036;2023-12-07T13:05:41;14.32;;;7.53;;
36751;SDS011;22718;49.494;7.036;2023-12-07T13:08:10;16.50;;;7.32;;
36751;SDS011;22718;49.494;7.036;2023-12-07T13:10:35;18.15;;;6.85;;
36751;SDS011;22718;49.494;7.036;2023-12-07T13:13:01;13.10;;;6.25;;
36751;SDS011;22718;49.494;7.036;2023-12-07T13:15:28;16.40;;;6.40;;
36751;SDS011;22718;49.494;7.036;2023-12-07T13:17:54;16.05;;;7.97;;
36751;SDS011;22718;49.494;7.036;2023-12-07T13:20:23;18.05;;;7.88;;
36751;SDS011;22718;49.494;7.036;2023-12-07T13:22:49;15.73;;;7.25;;
36751;SDS011;22718;49.494;7.036;2023-12-07T13:27:45;14.48;;;7.60;;
36751;SDS011;22718;49.494;7.036;2023-12-07T13:30:13;18.52;;;8.68;;
36751;SDS011;22718;49.494;7.036;2023-12-07T13:32:40;16.27;;;7.50;;
36751;SDS011;22718;49.494;7.036;2023-12-07T13:35:07;15.63;;;8.55;;
36751;SDS011;22718;49.494;7.036;2023-12-07T13:37:39;16.08;;;7.38;;
36751;SDS011;22718;49.494;7.036;2023-12-07T13:40:07;15.73;;;7.63;;
36751;SDS011;22718;49.494;7.036;2023-12-07T13:42:35;16.77;;;9.05;;
36751;SDS011;22718;49.494;7.036;2023-12-07T13:45:13;20.58;;;8.02;;
36751;SDS011;22718;49.494;7.036;2023-12-07T13:47:39;19.10;;;8.77;;
36751;SDS011;22718;49.494;7.036;2023-12-07T13:50:07;20.75;;;8.88;;
36751;SDS011;22718;49.494;7.036;2023-12-07T13:52:33;20.10;;;8.75;;
36751;SDS011;22718;49.494;7.036;2023-12-07T13:54:59;18.35;;;8.75;;
36751;SDS011;22718;49.494;7.036;2023-12-07T13:57:25;16.73;;;9.05;;
36751;SDS011;22718;49.494;7.036;2023-12-07T13:59:51;17.77;;;8.95;;
36751;SDS011;22718;49.494;7.036;2023-12-07T14:02:18;26.33;;;12.32;;
36751;SDS011;22718;49.494;7.036;2023-12-07T14:04:49;22.17;;;9.73;;
36751;SDS011;22718;49.494;7.036;2023-12-07T14:07:18;20.45;;;9.65;;
36751;SDS011;22718;49.494;7.036;2023-12-07T14:09:46;24.02;;;11.57;;
36751;SDS011;22718;49.494;7.036;2023-12-07T14:12:13;28.63;;;12.52;;
36751;SDS011;22718;49.494;7.036;2023-12-07T14:14:46;19.05;;;9.18;;
36751;SDS011;22718;49.494;7.036;2023-12-07T14:17:12;20.77;;;9.38;;
36751;SDS011;22718;49.494;7.036;2023-12-07T14:19:51;19.52;;;8.57;;
36751;SDS011;22718;49.494;7.036;2023-12-07T14:22:24;18.13;;;9.70;;
36751;SDS011;22718;49.494;7.036;2023-12-07T14:24:52;18.27;;;8.45;;
36751;SDS011;22718;49.494;7.036;2023-12-07T14:27:21;17.83;;;8.82;;
36751;SDS011;22718;49.494;7.036;2023-12-07T14:29:52;15.68;;;7.70;;
36751;SDS011;22718;49.494;7.036;2023-12-07T14:32:19;18.38;;;8.70;;
36751;SDS011;22718;49.494;7.036;2023-12-07T14:34:47;17.10;;;9.10;;
36751;SDS011;22718;49.494;7.036;2023-12-07T14:40:03;15.27;;;9.68;;
36751;SDS011;22718;49.494;7.036;2023-12-07T14:42:42;20.90;;;10.13;;
36751;SDS011;22718;49.494;7.036;2023-12-07T14:45:11;24.42;;;11.00;;
36751;SDS011;22718;49.494;7.036;2023-12-07T14:47:39;16.13;;;7.68;;
36751;SDS011;22718;49.494;7.036;2023-12-07T14:50:10;18.77;;;8.70;;
36751;SDS011;22718;49.494;7.036;2023-12-07T14:52:39;17.52;;;8.82;;
36751;SDS011;22718;49.494;7.036;2023-12-07T14:55:05;21.00;;;9.27;;
36751;SDS011;22718;49.494;7.036;2023-12-07T14:57:31;18.92;;;8.20;;